sensor_id;sensor_type;location;lat;lon;timestamp;pressure;altitude;pressure_sealevel;temperature;humidity
8894;BME280;4483;48.622;9.230;2023-05-09T00:02:09;98155.34;;;14.19;100.00
8894;BME280;4483;48.622;9.230;2023-05-09T00:04:36;98152.88;;;14.16;100.00
8894;BME280;4483;48.622;9.230;2023-05-09T00:07:03;98152.28;;;14.11;100.00
8894;BME280;4483;48.622;9.230;2023-05-09T00:09:31;98154.84;;;14.11;100.00
8894;BME280;4483;48.622;9.230;2023-05-09T00:11:57;98146.31;;;14.09;100.00
8894;BME280;4483;48.622;9.230;2023-05-09T00:14:24;98149.06;;;14.06;100.00
8894;BME280;4483;48.622;9.230;2023-05-09T00:16:51;98147.38;;;14.05;100.00
8894;BME280;4483;48.622;9.230;2023-05-09T00:19:18;98145.72;;;14.04;100.00
8894;BME280;4483;48.622;9.230;2023-05-09T00:21:44;98140.66;;;14.01;100.00
8894;BME280;4483;48.622;9.230;2023-05-09T00:24:11;98139.00;;;14.00;100.00
8894;BME280;4483;48.622;9.230;2023-05-09T00:26:39;98139.94;;;13.99;100.00
8894;BME280;4483;48.622;9.230;2023-05-09T00:29:05;98136.50;;;13.98;100.00
8894;BME280;4483;48.622;9.230;2023-05-09T00:31:32;98131.44;;;13.95;100.00
8894;BME280;4483;48.622;9.230;2023-05-09T00:33:59;98125.59;;;13.92;100.00
8894;BME280;4483;48.622;9.230;2023-05-09T00:36:25;98129.19;;;13.89;100.00
8894;BME280;4483;48.622;9.230;2023-05-09T00:38:52;98123.22;;;13.87;100.00
8894;BME280;4483;48.622;9.230;2023-05-09T00:41:18;98122.56;;;13.84;100.00
8894;BME280;4483;48.622;9.230;2023-05-09T00:43:47;98113.16;;;13.81;100.00
8894;BME280;4483;48.622;9.230;2023-05-09T00:46:13;98118.50;;;13.78;100.00
8894;BME280;4483;48.622;9.230;2023-05-09T00:48:40;98113.47;;;13.75;100.00
8894;BME280;4483;48.622;9.230;2023-05-09T00:51:07;98112.78;;;13.72;100.00
8894;BME280;4483;48.622;9.230;2023-05-09T00:53:33;98113.78;;;13.69;100.00
8894;BME280;4483;48.622;9.230;2023-05-09T00:56:00;98113.09;;;13.66;100.00
8894;BME280;4483;48.622;9.230;2023-05-09T00:58:28;98106.38;;;13.62;100.00
8894;BME280;4483;48.622;9.230;2023-05-09T01:00:56;98103.19;;;13.57;100.00
8894;BME280;4483;48.622;9.230;2023-05-09T01:03:23;98104.16;;;13.54;100.00
8894;BME280;4483;48.622;9.230;2023-05-09T01:05:57;98112.00;;;13.53;100.00
8894;BME280;4483;48.622;9.230;2023-05-09T01:08:43;98106.94;;;13.50;100.00
8894;BME280;4483;48.622;9.230;2023-05-09T01:11:19;98103.91;;;13.42;100.00
8894;BME280;4483;48.622;9.230;2023-05-09T01:13:52;98107.56;;;13.38;100.00
8894;BME280;4483;48.622;9.230;2023-05-09T01:16:25;98100.84;;;13.34;100.00
8894;BME280;4483;48.622;9.230;2023-05-09T01:19:00;98101.84;;;13.31;100.00
8894;BME280;4483;48.622;9.230;2023-05-09T01:21:29;98100.16;;;13.30;100.00
8894;BME280;4483;48.622;9.230;2023-05-09T01:24:24;98096.88;;;13.27;100.00
8894;BME280;4483;48.622;9.230;2023-05-09T01:27:09;98104.56;;;13.28;100.00
8894;BME280;4483;48.622;9.230;2023-05-09T01:29:43;98097.78;;;13.26;100.00
8894;BME280;4483;48.622;9.230;2023-05-09T01:32:13;98095.25;;;13.24;100.00
8894;BME280;4483;48.622;9.230;2023-05-09T01:34:43;98092.63;;;13.26;100.00
8894;BME280;4483;48.622;9.230;2023-05-09T01:37:12;98095.19;;;13.26;100.00
8894;BME280;4483;48.622;9.230;2023-05-09T01:39:44;98089.09;;;13.27;100.00
8894;BME280;4483;48.622;9.230;2023-05-09T01:42:12;98085.75;;;13.25;100.00
8894;BME280;4483;48.622;9.230;2023-05-09T01:44:40;98082.25;;;13.26;100.00
8894;BME280;4483;48.622;9.230;2023-05-09T01:47:09;98080.66;;;13.23;100.00
8894;BME280;4483;48.622;9.230;2023-05-09T01:49:37;98088.56;;;13.20;100.00
8894;BME280;4483;48.622;9.230;2023-05-09T01:52:10;98082.69;;;13.17;100.00
8894;BME280;4483;48.622;9.230;2023-05-09T01:54:39;98074.38;;;13.10;100.00
8894;BME280;4483;48.622;9.230;2023-05-09T01:57:06;98076.88;;;13.11;100.00
8894;BME280;4483;48.622;9.230;2023-05-09T01:59:34;98071.94;;;13.07;100.00
8894;BME280;4483;48.622;9.230;2023-05-09T02:02:02;98075.56;;;13.03;100.00
8894;BME280;4483;48.622;9.230;2023-05-09T02:04:31;98076.66;;;12.97;100.00
8894;BME280;4483;48.622;9.230;2023-05-09T02:06:59;98076.81;;;12.94;100.00
8894;BME280;4483;48.622;9.230;2023-05-09T02:09:26;98077.78;;;12.92;100.00
8894;BME280;4483;48.622;9.230;2023-05-09T02:11:53;98071.91;;;12.88;100.00
8894;BME280;4483;48.622;9.230;2023-05-09T02:14:20;98072.81;;;12.87;100.00
8894;BME280;4483;48.622;9.230;2023-05-09T02:16:47;98078.06;;;12.86;100.00
8894;BME280;4483;48.622;9.230;2023-05-09T02:19:14;98077.34;;;12.82;100.00
8894;BME280;4483;48.622;9.230;2023-05-09T02:21:42;98081.84;;;12.79;100.00
8894;BME280;4483;48.622;9.230;2023-05-09T02:24:09;98072.63;;;12.73;100.00
8894;BME280;4483;48.622;9.230;2023-05-09T02:26:36;98081.22;;;12.74;100.00
8894;BME280;4483;48.622;9.230;2023-05-09T02:29:04;98075.28;;;12.72;100.00
8894;BME280;4483;48.622;9.230;2023-05-09T02:31:32;98079.59;;;12.71;100.00
8894;BME280;4483;48.622;9.230;2023-05-09T02:34:01;98076.13;;;12.72;100.00
8894;BME280;4483;48.622;9.230;2023-05-09T02:36:29;98080.50;;;12.70;100.00
8894;BME280;4483;48.622;9.230;2023-05-09T02:38:58;98077.09;;;12.70;100.00
8894;BME280;4483;48.622;9.230;2023-05-09T02:41:25;98078.81;;;12.69;100.00
8894;BME280;4483;48.622;9.230;2023-05-09T02:43:52;98078.06;;;12.67;100.00
8894;BME280;4483;48.622;9.230;2023-05-09T02:46:19;98062.69;;;12.64;100.00
8894;BME280;4483;48.622;9.230;2023-05-09T02:48:46;98066.19;;;12.63;100.00
8894;BME280;4483;48.622;9.230;2023-05-09T02:51:12;98064.50;;;12.62;100.00
8894;BME280;4483;48.622;9.230;2023-05-09T02:53:39;98065.34;;;12.63;100.00
8894;BME280;4483;48.622;9.230;2023-05-09T02:56:07;98060.19;;;12.63;100.00
8894;BME280;4483;48.622;9.230;2023-05-09T02:58:35;98054.16;;;12.62;100.00
8894;BME280;4483;48.622;9.230;2023-05-09T03:01:01;98059.34;;;12.62;100.00
8894;BME280;4483;48.622;9.230;2023-05-09T03:03:28;98059.34;;;12.62;100.00
8894;BME280;4483;48.622;9.230;2023-05-09T03:05:58;98050.69;;;12.63;100.00
8894;BME280;4483;48.622;9.230;2023-05-09T03:08:25;98046.41;;;12.62;100.00
8894;BME280;4483;48.622;9.230;2023-05-09T03:10:52;98042.28;;;12.58;100.00
8894;BME280;4483;48.622;9.230;2023-05-09T03:13:20;98037.25;;;12.55;100.00
8894;BME280;4483;48.622;9.230;2023-05-09T03:15:46;98041.66;;;12.53;100.00
8894;BME280;4483;48.622;9.230;2023-05-09T03:18:13;98037.41;;;12.52;100.00
8894;BME280;4483;48.622;9.230;2023-05-09T03:20:39;98025.38;;;12.51;100.00
8894;BME280;4483;48.622;9.230;2023-05-09T03:23:06;98028.88;;;12.50;100.00
8894;BME280;4483;48.622;9.230;2023-05-09T03:25:34;98029.00;;;12.47;100.00
8894;BME280;4483;48.622;9.230;2023-05-09T03:28:00;98042.00;;;12.46;100.00
8894;BME280;4483;48.622;9.230;2023-05-09T03:30:28;98037.69;;;12.46;100.00
8894;BME280;4483;48.622;9.230;2023-05-09T03:32:55;98042.00;;;12.46;100.00
8894;BME280;4483;48.622;9.230;2023-05-09T03:35:22;98036.06;;;12.44;100.00
8894;BME280;4483;48.622;9.230;2023-05-09T03:37:48;98033.44;;;12.45;100.00
8894;BME280;4483;48.622;9.230;2023-05-09T03:40:15;98030.78;;;12.47;100.00
8894;BME280;4483;48.622;9.230;2023-05-09T03:42:41;98028.25;;;12.45;100.00
8894;BME280;4483;48.622;9.230;2023-05-09T03:45:09;98021.63;;;12.40;100.00
8894;BME280;4483;48.622;9.230;2023-05-09T03:47:37;98027.50;;;12.43;100.00
8894;BME280;4483;48.622;9.230;2023-05-09T03:50:04;98027.50;;;12.43;100.00
8894;BME280;4483;48.622;9.230;2023-05-09T03:52:32;98028.25;;;12.45;100.00
8894;BME280;4483;48.622;9.230;2023-05-09T03:54:59;98015.47;;;12.42;100.00
8894;BME280;4483;48.622;9.230;2023-05-09T03:57:25;98023.13;;;12.44;100.00
8894;BME280;4483;48.622;9.230;2023-05-09T03:59:52;98024.91;;;12.43;100.00
8894;BME280;4483;48.622;9.230;2023-05-09T04:02:18;98021.47;;;12.43;100.00
8894;BME280;4483;48.622;9.230;2023-05-09T04:04:46;98022.25;;;12.45;100.00
8894;BME280;4483;48.622;9.230;2023-05-09T04:07:14;98019.66;;;12.45;100.00
8894;BME280;4483;48.622;9.230;2023-05-09T04:09:41;98017.94;;;12.45;100.00
8894;BME280;4483;48.622;9.230;2023-05-09T04:12:07;98022.16;;;12.46;100.00
8894;BME280;4483;48.622;9.230;2023-05-09T04:14:34;98018.66;;;12.47;100.00
8894;BME280;4483;48.622;9.230;2023-05-09T04:17:00;98017.97;;;12.44;100.00
8894;BME280;4483;48.622;9.230;2023-05-09T04:19:27;98017.16;;;12.43;100.00
8894;BME280;4483;48.622;9.230;2023-05-09T04:21:55;98018.03;;;12.42;100.00
8894;BME280;4483;48.622;9.230;2023-05-09T04:24:22;98023.13;;;12.44;100.00
8894;BME280;4483;48.622;9.230;2023-05-09T04:26:49;98017.16;;;12.43;100.00
8894;BME280;4483;48.622;9.230;2023-05-09T04:29:16;98022.31;;;12.43;100.00
8894;BME280;4483;48.622;9.230;2023-05-09T04:31:43;98019.59;;;12.46;100.00
8894;BME280;4483;48.622;9.230;2023-05-09T04:34:09;98029.84;;;12.48;100.00
8894;BME280;4483;48.622;9.230;2023-05-09T04:36:36;98034.16;;;12.47;100.00
8894;BME280;4483;48.622;9.230;2023-05-09T04:39:04;98025.59;;;12.47;100.00
8894;BME280;4483;48.622;9.230;2023-05-09T04:41:30;98027.34;;;12.46;100.00
8894;BME280;4483;48.622;9.230;2023-05-09T04:43:57;98032.50;;;12.46;100.00
8894;BME280;4483;48.622;9.230;2023-05-09T04:46:24;98027.50;;;12.43;100.00
8894;BME280;4483;48.622;9.230;2023-05-09T04:48:51;98032.66;;;12.43;100.00
8894;BME280;4483;48.622;9.230;2023-05-09T04:51:18;98023.28;;;12.41;100.00
8894;BME280;4483;48.622;9.230;2023-05-09T04:53:44;98030.06;;;12.43;100.00
8894;BME280;4483;48.622;9.230;2023-05-09T04:56:12;98032.59;;;12.45;100.00
8894;BME280;4483;48.622;9.230;2023-05-09T04:58:39;98022.31;;;12.43;100.00
8894;BME280;4483;48.622;9.230;2023-05-09T05:01:06;98027.41;;;12.45;100.00
8894;BME280;4483;48.622;9.230;2023-05-09T05:03:32;98029.00;;;12.47;100.00
8894;BME280;4483;48.622;9.230;2023-05-09T05:05:59;98028.88;;;12.50;100.00
8894;BME280;4483;48.622;9.230;2023-05-09T05:08:25;98034.69;;;12.55;100.00
8894;BME280;4483;48.622;9.230;2023-05-09T05:10:52;98026.78;;;12.58;100.00
8894;BME280;4483;48.622;9.230;2023-05-09T05:13:20;98027.63;;;12.59;100.00
8894;BME280;4483;48.622;9.230;2023-05-09T05:15:46;98031.81;;;12.61;100.00
8894;BME280;4483;48.622;9.230;2023-05-09T05:18:13;98025.66;;;12.64;100.00
8894;BME280;4483;48.622;9.230;2023-05-09T05:20:40;98026.34;;;12.67;100.00
8894;BME280;4483;48.622;9.230;2023-05-09T05:23:07;98018.56;;;12.69;100.00
8894;BME280;4483;48.622;9.230;2023-05-09T05:25:34;98022.72;;;12.71;100.00
8894;BME280;4483;48.622;9.230;2023-05-09T05:28:01;98021.69;;;12.75;100.00
8894;BME280;4483;48.622;9.230;2023-05-09T05:30:29;98017.97;;;12.81;100.00
8894;BME280;4483;48.622;9.230;2023-05-09T05:32:55;98010.06;;;12.84;100.00
8894;BME280;4483;48.622;9.230;2023-05-09T05:35:22;98005.53;;;12.89;100.00
8894;BME280;4483;48.622;9.230;2023-05-09T05:37:49;98002.72;;;12.93;100.00
8894;BME280;4483;48.622;9.230;2023-05-09T05:40:15;98002.59;;;12.96;100.00
8894;BME280;4483;48.622;9.230;2023-05-09T05:42:42;98009.16;;;13.03;100.00
8894;BME280;4483;48.622;9.230;2023-05-09T05:45:11;98009.78;;;13.08;100.00
8894;BME280;4483;48.622;9.230;2023-05-09T05:47:38;98006.06;;;13.14;100.00
8894;BME280;4483;48.622;9.230;2023-05-09T05:50:06;98006.59;;;13.21;100.00
8894;BME280;4483;48.622;9.230;2023-05-09T05:52:36;98001.13;;;13.27;100.00
8894;BME280;4483;48.622;9.230;2023-05-09T05:55:03;97993.00;;;13.34;100.00
8894;BME280;4483;48.622;9.230;2023-05-09T05:57:29;97995.81;;;13.47;100.00
8894;BME280;4483;48.622;9.230;2023-05-09T05:59:56;98001.28;;;13.58;100.00
8894;BME280;4483;48.622;9.230;2023-05-09T06:02:22;98008.44;;;13.70;100.00
8894;BME280;4483;48.622;9.230;2023-05-09T06:04:50;98000.06;;;13.82;100.00
8894;BME280;4483;48.622;9.230;2023-05-09T06:07:17;98000.19;;;13.96;100.00
8894;BME280;4483;48.622;9.230;2023-05-09T06:09:44;97996.22;;;14.06;100.00
8894;BME280;4483;48.622;9.230;2023-05-09T06:12:10;97985.19;;;14.18;100.00
8894;BME280;4483;48.622;9.230;2023-05-09T06:14:40;97991.53;;;14.30;100.00
8894;BME280;4483;48.622;9.230;2023-05-09T06:17:07;97974.91;;;14.34;100.00
8894;BME280;4483;48.622;9.230;2023-05-09T06:19:33;97983.13;;;14.57;100.00
8894;BME280;4483;48.622;9.230;2023-05-09T06:22:02;97986.22;;;14.79;100.00
8894;BME280;4483;48.622;9.230;2023-05-09T06:24:29;97982.00;;;14.92;100.00
8894;BME280;4483;48.622;9.230;2023-05-09T06:26:55;97976.91;;;15.06;100.00
8894;BME280;4483;48.622;9.230;2023-05-09T06:29:22;97976.47;;;15.14;100.00
8894;BME280;4483;48.622;9.230;2023-05-09T06:31:48;97969.72;;;15.26;100.00
8894;BME280;4483;48.622;9.230;2023-05-09T06:34:15;97968.31;;;15.65;100.00
8894;BME280;4483;48.622;9.230;2023-05-09T06:36:42;97967.41;;;16.08;100.00
8894;BME280;4483;48.622;9.230;2023-05-09T06:39:10;97957.44;;;16.43;100.00
8894;BME280;4483;48.622;9.230;2023-05-09T06:41:36;97959.28;;;16.69;100.00
8894;BME280;4483;48.622;9.230;2023-05-09T06:44:03;97959.06;;;16.86;100.00
8894;BME280;4483;48.622;9.230;2023-05-09T06:46:30;97956.09;;;17.05;100.00
8894;BME280;4483;48.622;9.230;2023-05-09T06:48:56;97953.38;;;17.33;100.00
8894;BME280;4483;48.622;9.230;2023-05-09T06:51:25;97949.47;;;17.65;100.00
8894;BME280;4483;48.622;9.230;2023-05-09T06:53:52;97945.03;;;17.80;100.00
8894;BME280;4483;48.622;9.230;2023-05-09T06:56:20;97949.69;;;17.87;100.00
8894;BME280;4483;48.622;9.230;2023-05-09T06:58:47;97939.81;;;18.05;100.00
8894;BME280;4483;48.622;9.230;2023-05-09T07:01:14;97946.66;;;18.44;100.00
8894;BME280;4483;48.622;9.230;2023-05-09T07:03:41;97954.25;;;18.83;100.00
8894;BME280;4483;48.622;9.230;2023-05-09T07:06:07;97944.88;;;19.28;100.00
8894;BME280;4483;48.622;9.230;2023-05-09T07:08:34;97934.56;;;19.72;100.00
8894;BME280;4483;48.622;9.230;2023-05-09T07:11:00;97934.41;;;20.19;98.67
8894;BME280;4483;48.622;9.230;2023-05-09T07:13:28;97931.28;;;20.58;95.38
8894;BME280;4483;48.622;9.230;2023-05-09T07:15:55;97931.44;;;20.99;92.31
8894;BME280;4483;48.622;9.230;2023-05-09T07:18:22;97919.94;;;21.43;89.72
8894;BME280;4483;48.622;9.230;2023-05-09T07:20:48;97914.97;;;21.81;86.79
8894;BME280;4483;48.622;9.230;2023-05-09T07:23:15;97911.56;;;21.90;82.89
8894;BME280;4483;48.622;9.230;2023-05-09T07:25:42;97904.97;;;21.75;82.04
8894;BME280;4483;48.622;9.230;2023-05-09T07:28:09;97904.13;;;21.75;80.99
8894;BME280;4483;48.622;9.230;2023-05-09T07:30:38;97894.31;;;21.97;80.66
8894;BME280;4483;48.622;9.230;2023-05-09T07:33:04;97890.72;;;22.29;79.76
8894;BME280;4483;48.622;9.230;2023-05-09T07:35:32;97889.28;;;22.55;78.28
8894;BME280;4483;48.622;9.230;2023-05-09T07:37:58;97887.81;;;22.71;76.28
8894;BME280;4483;48.622;9.230;2023-05-09T07:40:25;97875.25;;;22.75;72.92
8894;BME280;4483;48.622;9.230;2023-05-09T07:42:51;97872.25;;;22.89;74.28
8894;BME280;4483;48.622;9.230;2023-05-09T07:45:19;97867.41;;;23.04;72.41
8894;BME280;4483;48.622;9.230;2023-05-09T07:47:47;97864.19;;;23.10;71.56
8894;BME280;4483;48.622;9.230;2023-05-09T07:50:13;97855.22;;;23.22;70.96
8894;BME280;4483;48.622;9.230;2023-05-09T07:52:41;97846.63;;;23.39;70.37
8894;BME280;4483;48.622;9.230;2023-05-09T07:55:08;97839.84;;;23.46;67.03
8894;BME280;4483;48.622;9.230;2023-05-09T07:57:36;97854.47;;;23.58;67.76
8894;BME280;4483;48.622;9.230;2023-05-09T08:00:05;97851.91;;;23.75;67.54
8894;BME280;4483;48.622;9.230;2023-05-09T08:02:32;97846.06;;;23.91;66.05
8894;BME280;4483;48.622;9.230;2023-05-09T08:05:00;97833.59;;;23.93;64.45
8894;BME280;4483;48.622;9.230;2023-05-09T08:07:26;97828.03;;;23.96;63.27
8894;BME280;4483;48.622;9.230;2023-05-09T08:09:53;97814.19;;;23.94;63.04
8894;BME280;4483;48.622;9.230;2023-05-09T08:12:19;97818.03;;;24.00;61.58
8894;BME280;4483;48.622;9.230;2023-05-09T08:14:46;97814.69;;;23.80;61.18
8894;BME280;4483;48.622;9.230;2023-05-09T08:17:13;97813.00;;;23.79;61.39
8894;BME280;4483;48.622;9.230;2023-05-09T08:19:40;97810.81;;;23.74;61.44
8894;BME280;4483;48.622;9.230;2023-05-09T08:22:08;97807.00;;;23.50;61.48
8894;BME280;4483;48.622;9.230;2023-05-09T08:24:34;97804.97;;;23.44;62.28
8894;BME280;4483;48.622;9.230;2023-05-09T08:27:01;97800.16;;;23.66;62.40
8894;BME280;4483;48.622;9.230;2023-05-09T08:29:28;97795.59;;;24.05;61.30
8894;BME280;4483;48.622;9.230;2023-05-09T08:31:55;97787.56;;;24.34;60.78
8894;BME280;4483;48.622;9.230;2023-05-09T08:34:22;97787.81;;;24.13;58.49
8894;BME280;4483;48.622;9.230;2023-05-09T08:36:48;97788.75;;;23.85;59.72
8894;BME280;4483;48.622;9.230;2023-05-09T08:39:16;97780.63;;;23.42;60.57
8894;BME280;4483;48.622;9.230;2023-05-09T08:41:43;97777.47;;;23.19;61.30
8894;BME280;4483;48.622;9.230;2023-05-09T08:44:10;97762.94;;;23.06;61.75
8894;BME280;4483;48.622;9.230;2023-05-09T08:46:38;97764.47;;;22.98;61.94
8894;BME280;4483;48.622;9.230;2023-05-09T08:49:08;97758.34;;;23.27;62.62
8894;BME280;4483;48.622;9.230;2023-05-09T08:51:35;97762.91;;;23.44;62.52
8894;BME280;4483;48.622;9.230;2023-05-09T08:54:03;97766.47;;;23.43;61.92
8894;BME280;4483;48.622;9.230;2023-05-09T08:56:33;97763.22;;;23.22;62.23
8894;BME280;4483;48.622;9.230;2023-05-09T08:59:00;97770.56;;;22.99;63.00
8894;BME280;4483;48.622;9.230;2023-05-09T09:01:27;97762.44;;;22.73;63.92
8894;BME280;4483;48.622;9.230;2023-05-09T09:03:55;97775.56;;;22.64;64.36
8894;BME280;4483;48.622;9.230;2023-05-09T09:06:22;97760.75;;;22.53;64.96
8894;BME280;4483;48.622;9.230;2023-05-09T09:08:51;97769.31;;;22.46;64.90
8894;BME280;4483;48.622;9.230;2023-05-09T09:11:20;97770.16;;;22.46;65.38
8894;BME280;4483;48.622;9.230;2023-05-09T09:13:50;97754.28;;;22.86;65.35
8894;BME280;4483;48.622;9.230;2023-05-09T09:16:20;97751.44;;;23.26;64.62
8894;BME280;4483;48.622;9.230;2023-05-09T09:18:50;97753.47;;;23.51;62.99
8894;BME280;4483;48.622;9.230;2023-05-09T09:21:18;97749.94;;;23.33;62.42
8894;BME280;4483;48.622;9.230;2023-05-09T09:23:46;97745.13;;;23.09;62.06
8894;BME280;4483;48.622;9.230;2023-05-09T09:26:13;97743.59;;;23.07;62.06
8894;BME280;4483;48.622;9.230;2023-05-09T09:28:40;97734.63;;;23.00;62.01
8894;BME280;4483;48.622;9.230;2023-05-09T09:31:21;97738.09;;;23.00;61.62
8894;BME280;4483;48.622;9.230;2023-05-09T09:33:48;97731.22;;;23.36;60.79
8894;BME280;4483;48.622;9.230;2023-05-09T09:36:15;97731.00;;;23.56;61.09
8894;BME280;4483;48.622;9.230;2023-05-09T09:38:42;97725.09;;;23.72;61.22
8894;BME280;4483;48.622;9.230;2023-05-09T09:41:09;97723.66;;;23.87;60.31
8894;BME280;4483;48.622;9.230;2023-05-09T09:43:37;97722.06;;;24.04;58.89
8894;BME280;4483;48.622;9.230;2023-05-09T09:46:04;97725.78;;;23.74;59.55
8894;BME280;4483;48.622;9.230;2023-05-09T09:48:34;97720.19;;;23.59;59.84
8894;BME280;4483;48.622;9.230;2023-05-09T09:51:07;97718.59;;;23.76;59.91
8894;BME280;4483;48.622;9.230;2023-05-09T09:53:38;97713.72;;;24.26;58.92
8894;BME280;4483;48.622;9.230;2023-05-09T09:56:05;97699.13;;;24.66;58.09
8894;BME280;4483;48.622;9.230;2023-05-09T09:58:32;97694.69;;;25.10;57.33
8894;BME280;4483;48.622;9.230;2023-05-09T10:01:05;97692.84;;;25.36;55.64
8894;BME280;4483;48.622;9.230;2023-05-09T10:03:37;97684.03;;;25.45;55.22
8894;BME280;4483;48.622;9.230;2023-05-09T10:06:08;97677.19;;;25.68;54.53
8894;BME280;4483;48.622;9.230;2023-05-09T10:08:36;97676.91;;;25.88;53.86
8894;BME280;4483;48.622;9.230;2023-05-09T10:11:02;97675.28;;;25.95;53.89
8894;BME280;4483;48.622;9.230;2023-05-09T10:13:29;97671.19;;;26.08;52.84
8894;BME280;4483;48.622;9.230;2023-05-09T10:15:57;97675.44;;;26.01;51.95
8894;BME280;4483;48.622;9.230;2023-05-09T10:18:27;97666.06;;;25.99;52.17
8894;BME280;4483;48.622;9.230;2023-05-09T10:20:57;97648.28;;;26.17;52.00
8894;BME280;4483;48.622;9.230;2023-05-09T10:23:27;97646.31;;;26.19;51.62
8894;BME280;4483;48.622;9.230;2023-05-09T10:25:59;97635.22;;;26.07;51.60
8894;BME280;4483;48.622;9.230;2023-05-09T10:28:30;97636.22;;;26.06;51.71
8894;BME280;4483;48.622;9.230;2023-05-09T10:31:00;97641.34;;;26.16;51.92
8894;BME280;4483;48.622;9.230;2023-05-09T10:33:33;97637.22;;;26.29;51.54
8894;BME280;4483;48.622;9.230;2023-05-09T10:36:05;97637.72;;;26.41;51.28
8894;BME280;4483;48.622;9.230;2023-05-09T10:38:33;97635.41;;;26.62;51.09
8894;BME280;4483;48.622;9.230;2023-05-09T10:41:01;97626.00;;;26.75;50.99
8894;BME280;4483;48.622;9.230;2023-05-09T10:43:28;97621.66;;;26.99;50.35
8894;BME280;4483;48.622;9.230;2023-05-09T10:45:56;97624.78;;;27.02;49.23
8894;BME280;4483;48.622;9.230;2023-05-09T10:48:23;97617.69;;;26.95;49.20
8894;BME280;4483;48.622;9.230;2023-05-09T10:50:50;97618.69;;;26.94;49.51
8894;BME280;4483;48.622;9.230;2023-05-09T10:53:19;97605.41;;;27.10;49.65
8894;BME280;4483;48.622;9.230;2023-05-09T10:55:50;97601.69;;;27.43;49.39
8894;BME280;4483;48.622;9.230;2023-05-09T10:58:18;97594.50;;;27.51;48.09
8894;BME280;4483;48.622;9.230;2023-05-09T11:00:46;97596.38;;;27.43;48.04
8894;BME280;4483;48.622;9.230;2023-05-09T11:03:12;97583.81;;;27.45;48.26
8894;BME280;4483;48.622;9.230;2023-05-09T11:05:40;97578.31;;;27.77;48.21
8894;BME280;4483;48.622;9.230;2023-05-09T11:08:21;97580.84;;;28.01;47.19
8894;BME280;4483;48.622;9.230;2023-05-09T11:10:49;97564.47;;;27.98;46.39
8894;BME280;4483;48.622;9.230;2023-05-09T11:13:17;97562.22;;;27.87;46.47
8894;BME280;4483;48.622;9.230;2023-05-09T11:16:12;97553.00;;;27.74;46.30
8894;BME280;4483;48.622;9.230;2023-05-09T11:18:52;97549.47;;;27.82;46.22
8894;BME280;4483;48.622;9.230;2023-05-09T11:21:19;97550.88;;;27.78;44.64
8894;BME280;4483;48.622;9.230;2023-05-09T11:23:48;97545.44;;;27.71;44.03
8894;BME280;4483;48.622;9.230;2023-05-09T11:26:20;97538.66;;;27.69;44.48
8894;BME280;4483;48.622;9.230;2023-05-09T11:28:51;97531.84;;;27.52;44.88
8894;BME280;4483;48.622;9.230;2023-05-09T11:31:19;97526.88;;;27.49;44.76
8894;BME280;4483;48.622;9.230;2023-05-09T11:33:48;97519.00;;;27.63;44.97
8894;BME280;4483;48.622;9.230;2023-05-09T11:36:21;97513.00;;;27.92;44.63
8894;BME280;4483;48.622;9.230;2023-05-09T11:39:03;97512.34;;;27.98;43.49
8894;BME280;4483;48.622;9.230;2023-05-09T11:41:39;97508.09;;;27.89;43.45
8894;BME280;4483;48.622;9.230;2023-05-09T11:44:15;97505.06;;;27.69;43.56
8894;BME280;4483;48.622;9.230;2023-05-09T11:46:43;97497.53;;;27.58;43.63
8894;BME280;4483;48.622;9.230;2023-05-09T11:49:10;97491.72;;;27.40;43.94
8894;BME280;4483;48.622;9.230;2023-05-09T11:51:37;97493.31;;;27.49;44.25
8894;BME280;4483;48.622;9.230;2023-05-09T11:54:06;97487.03;;;27.50;44.57
8894;BME280;4483;48.622;9.230;2023-05-09T11:56:34;97474.69;;;27.43;44.22
8894;BME280;4483;48.622;9.230;2023-05-09T11:59:01;97484.31;;;27.36;44.47
8894;BME280;4483;48.622;9.230;2023-05-09T12:01:28;97476.09;;;27.23;44.44
8894;BME280;4483;48.622;9.230;2023-05-09T12:03:56;97470.63;;;27.24;45.29
8894;BME280;4483;48.622;9.230;2023-05-09T12:06:23;97465.16;;;27.26;45.80
8894;BME280;4483;48.622;9.230;2023-05-09T12:08:50;97454.81;;;27.16;46.11
8894;BME280;4483;48.622;9.230;2023-05-09T12:11:18;97453.16;;;27.15;46.19
8894;BME280;4483;48.622;9.230;2023-05-09T12:13:46;97451.94;;;27.26;45.37
8894;BME280;4483;48.622;9.230;2023-05-09T12:16:14;97438.03;;;27.32;45.68
8894;BME280;4483;48.622;9.230;2023-05-09T12:18:45;97435.63;;;27.45;45.47
8894;BME280;4483;48.622;9.230;2023-05-09T12:21:12;97437.91;;;27.70;45.87
8894;BME280;4483;48.622;9.230;2023-05-09T12:23:39;97430.91;;;27.77;44.09
8894;BME280;4483;48.622;9.230;2023-05-09T12:26:05;97441.09;;;27.66;44.26
8894;BME280;4483;48.622;9.230;2023-05-09T12:28:34;97423.41;;;27.44;44.46
8894;BME280;4483;48.622;9.230;2023-05-09T12:31:01;97422.19;;;27.32;44.91
8894;BME280;4483;48.622;9.230;2023-05-09T12:33:29;97417.66;;;27.10;44.90
8894;BME280;4483;48.622;9.230;2023-05-09T12:36:04;97403.78;;;27.08;45.01
8894;BME280;4483;48.622;9.230;2023-05-09T12:38:31;97407.25;;;27.08;45.12
8894;BME280;4483;48.622;9.230;2023-05-09T12:41:01;97397.19;;;27.04;45.78
8894;BME280;4483;48.622;9.230;2023-05-09T12:43:29;97394.94;;;26.93;45.29
8894;BME280;4483;48.622;9.230;2023-05-09T12:45:58;97395.34;;;26.81;45.83
8894;BME280;4483;48.622;9.230;2023-05-09T12:48:26;97392.13;;;26.63;45.75
8894;BME280;4483;48.622;9.230;2023-05-09T12:50:52;97385.66;;;26.27;45.74
8894;BME280;4483;48.622;9.230;2023-05-09T12:53:23;97383.75;;;26.05;46.40
8894;BME280;4483;48.622;9.230;2023-05-09T12:55:53;97382.09;;;25.96;46.62
8894;BME280;4483;48.622;9.230;2023-05-09T12:58:20;97380.13;;;25.90;46.82
8894;BME280;4483;48.622;9.230;2023-05-09T13:00:46;97378.84;;;25.70;47.32
8894;BME280;4483;48.622;9.230;2023-05-09T13:03:21;97369.94;;;25.55;47.13
8894;BME280;4483;48.622;9.230;2023-05-09T13:05:57;97366.50;;;25.46;47.54
8894;BME280;4483;48.622;9.230;2023-05-09T13:08:24;97368.00;;;25.41;48.00
8894;BME280;4483;48.622;9.230;2023-05-09T13:10:51;97367.16;;;25.40;48.53
8894;BME280;4483;48.622;9.230;2023-05-09T13:13:18;97352.81;;;25.43;48.63
8894;BME280;4483;48.622;9.230;2023-05-09T13:15:45;97361.06;;;25.48;48.59
8894;BME280;4483;48.622;9.230;2023-05-09T13:18:12;97352.47;;;25.46;48.98
8894;BME280;4483;48.622;9.230;2023-05-09T13:20:40;97353.00;;;25.41;48.68